sensor_id;sensor_type;location;lat;lon;timestamp;P1;durP1;ratioP1;P2;durP2;ratioP2
23868;SDS011;12115;47.128;15.422;2023-04-03T00:01:15;1.52;;;1.10;;
23868;SDS011;12115;47.128;15.422;2023-04-03T00:03:43;1.27;;;1.17;;
23868;SDS011;12115;47.128;15.422;2023-04-03T00:06:10;1.10;;;1.00;;
23868;SDS011;12115;47.128;15.422;2023-04-03T00:08:38;2.75;;;1.10;;
23868;SDS011;12115;47.128;15.422;2023-04-03T00:11:09;1.08;;;0.93;;
23868;SDS011;12115;47.128;15.422;2023-04-03T00:13:37;1.45;;;0.95;;
23868;SDS011;12115;47.128;15.422;2023-04-03T00:16:06;1.05;;;0.90;;
23868;SDS011;12115;47.128;15.422;2023-04-03T00:18:34;1.02;;;0.93;;
23868;SDS011;12115;47.128;15.422;2023-04-03T00:21:01;1.20;;;1.00;;
23868;SDS011;12115;47.128;15.422;2023-04-03T00:23:30;1.13;;;1.00;;
23868;SDS011;12115;47.128;15.422;2023-04-03T00:25:57;1.48;;;0.93;;
23868;SDS011;12115;47.128;15.422;2023-04-03T00:28:25;1.77;;;1.10;;
23868;SDS011;12115;47.128;15.422;2023-04-03T00:30:54;0.85;;;0.82;;
23868;SDS011;12115;47.128;15.422;2023-04-03T00:33:21;2.17;;;1.30;;
23868;SDS011;12115;47.128;15.422;2023-04-03T00:35:49;1.33;;;1.20;;
23868;SDS011;12115;47.128;15.422;2023-04-03T00:38:17;1.38;;;1.27;;
23868;SDS011;12115;47.128;15.422;2023-04-03T00:40:45;1.45;;;1.10;;
23868;SDS011;12115;47.128;15.422;2023-04-03T00:43:16;1.88;;;1.50;;
23868;SDS011;12115;47.128;15.422;2023-04-03T00:45:51;0.98;;;0.90;;
23868;SDS011;12115;47.128;15.422;2023-04-03T00:49:03;1.73;;;1.30;;
23868;SDS011;12115;47.128;15.422;2023-04-03T00:51:13;1.60;;;1.40;;
23868;SDS011;12115;47.128;15.422;2023-04-03T00:54:03;1.50;;;1.13;;
23868;SDS011;12115;47.128;15.422;2023-04-03T00:56:33;2.63;;;1.75;;
23868;SDS011;12115;47.128;15.422;2023-04-03T00:59:04;1.88;;;1.30;;
23868;SDS011;12115;47.128;15.422;2023-04-03T01:01:36;1.70;;;1.20;;
23868;SDS011;12115;47.128;15.422;2023-04-03T01:04:05;1.70;;;1.40;;
23868;SDS011;12115;47.128;15.422;2023-04-03T01:06:34;1.13;;;1.02;;
23868;SDS011;12115;47.128;15.422;2023-04-03T01:09:06;1.50;;;1.25;;
23868;SDS011;12115;47.128;15.422;2023-04-03T01:11:33;1.85;;;1.20;;
23868;SDS011;12115;47.128;15.422;2023-04-03T01:14:01;1.60;;;1.40;;
23868;SDS011;12115;47.128;15.422;2023-04-03T01:16:29;1.30;;;1.20;;
23868;SDS011;12115;47.128;15.422;2023-04-03T01:18:59;1.80;;;1.40;;
23868;SDS011;12115;47.128;15.422;2023-04-03T01:24:21;2.90;;;1.50;;
23868;SDS011;12115;47.128;15.422;2023-04-03T01:26:55;1.50;;;1.40;;
23868;SDS011;12115;47.128;15.422;2023-04-03T01:29:22;1.98;;;1.27;;
23868;SDS011;12115;47.128;15.422;2023-04-03T01:31:54;3.97;;;1.52;;
23868;SDS011;12115;47.128;15.422;2023-04-03T01:34:27;1.55;;;1.13;;
23868;SDS011;12115;47.128;15.422;2023-04-03T01:36:55;1.42;;;1.33;;
23868;SDS011;12115;47.128;15.422;2023-04-03T01:39:23;3.40;;;1.30;;
23868;SDS011;12115;47.128;15.422;2023-04-03T01:41:51;2.78;;;1.08;;
23868;SDS011;12115;47.128;15.422;2023-04-03T01:44:32;1.95;;;1.45;;
23868;SDS011;12115;47.128;15.422;2023-04-03T01:46:59;1.40;;;1.30;;
23868;SDS011;12115;47.128;15.422;2023-04-03T01:49:28;2.70;;;1.30;;
23868;SDS011;12115;47.128;15.422;2023-04-03T01:51:56;1.90;;;1.20;;
23868;SDS011;12115;47.128;15.422;2023-04-03T01:54:23;1.80;;;1.27;;
23868;SDS011;12115;47.128;15.422;2023-04-03T01:56:51;1.77;;;1.33;;
23868;SDS011;12115;47.128;15.422;2023-04-03T01:59:19;2.65;;;1.30;;
23868;SDS011;12115;47.128;15.422;2023-04-03T02:01:47;1.13;;;1.02;;
23868;SDS011;12115;47.128;15.422;2023-04-03T02:04:14;3.13;;;1.20;;
23868;SDS011;12115;47.128;15.422;2023-04-03T02:06:42;2.10;;;0.98;;
23868;SDS011;12115;47.128;15.422;2023-04-03T02:09:09;1.30;;;1.20;;
23868;SDS011;12115;47.128;15.422;2023-04-03T02:11:36;1.20;;;1.10;;
23868;SDS011;12115;47.128;15.422;2023-04-03T02:14:04;1.50;;;1.40;;
23868;SDS011;12115;47.128;15.422;2023-04-03T02:16:32;1.70;;;1.15;;
23868;SDS011;12115;47.128;15.422;2023-04-03T02:18:59;1.38;;;1.10;;
23868;SDS011;12115;47.128;15.422;2023-04-03T02:21:28;1.10;;;1.00;;
23868;SDS011;12115;47.128;15.422;2023-04-03T02:23:56;1.25;;;1.10;;
23868;SDS011;12115;47.128;15.422;2023-04-03T02:26:23;1.23;;;1.13;;
23868;SDS011;12115;47.128;15.422;2023-04-03T02:29:06;1.15;;;1.05;;
23868;SDS011;12115;47.128;15.422;2023-04-03T02:31:34;1.80;;;0.88;;
23868;SDS011;12115;47.128;15.422;2023-04-03T02:34:01;1.45;;;1.15;;
23868;SDS011;12115;47.128;15.422;2023-04-03T02:36:29;1.10;;;1.00;;
23868;SDS011;12115;47.128;15.422;2023-04-03T02:39:02;1.38;;;1.10;;
23868;SDS011;12115;47.128;15.422;2023-04-03T02:41:30;1.08;;;1.00;;
23868;SDS011;12115;47.128;15.422;2023-04-03T02:44:11;1.88;;;1.10;;
23868;SDS011;12115;47.128;15.422;2023-04-03T02:46:39;2.65;;;1.20;;
23868;SDS011;12115;47.128;15.422;2023-04-03T02:49:07;1.52;;;1.17;;
23868;SDS011;12115;47.128;15.422;2023-04-03T02:51:34;1.27;;;0.90;;
23868;SDS011;12115;47.128;15.422;2023-04-03T02:54:02;1.60;;;1.40;;
23868;SDS011;12115;47.128;15.422;2023-04-03T02:56:32;2.25;;;1.30;;
23868;SDS011;12115;47.128;15.422;2023-04-03T02:58:59;1.45;;;1.05;;
23868;SDS011;12115;47.128;15.422;2023-04-03T03:01:27;2.15;;;1.35;;
23868;SDS011;12115;47.128;15.422;2023-04-03T03:03:58;1.25;;;1.10;;
23868;SDS011;12115;47.128;15.422;2023-04-03T03:06:26;1.23;;;1.02;;
23868;SDS011;12115;47.128;15.422;2023-04-03T03:08:54;1.25;;;0.95;;
23868;SDS011;12115;47.128;15.422;2023-04-03T03:11:21;1.15;;;1.00;;
23868;SDS011;12115;47.128;15.422;2023-04-03T03:16:42;1.20;;;1.10;;
23868;SDS011;12115;47.128;15.422;2023-04-03T03:19:10;1.20;;;1.05;;
23868;SDS011;12115;47.128;15.422;2023-04-03T03:21:37;1.05;;;0.88;;
23868;SDS011;12115;47.128;15.422;2023-04-03T03:24:04;1.17;;;0.80;;
23868;SDS011;12115;47.128;15.422;2023-04-03T03:26:32;1.20;;;0.88;;
23868;SDS011;12115;47.128;15.422;2023-04-03T03:31:53;1.45;;;1.08;;
23868;SDS011;12115;47.128;15.422;2023-04-03T03:34:21;2.13;;;0.90;;
23868;SDS011;12115;47.128;15.422;2023-04-03T03:36:49;1.02;;;0.93;;
23868;SDS011;12115;47.128;15.422;2023-04-03T03:39:16;1.50;;;0.90;;
23868;SDS011;12115;47.128;15.422;2023-04-03T03:41:44;1.15;;;0.98;;
23868;SDS011;12115;47.128;15.422;2023-04-03T03:44:12;1.30;;;1.00;;
23868;SDS011;12115;47.128;15.422;2023-04-03T03:46:41;1.42;;;0.88;;
23868;SDS011;12115;47.128;15.422;2023-04-03T03:49:08;1.17;;;0.88;;
23868;SDS011;12115;47.128;15.422;2023-04-03T03:51:36;1.00;;;0.90;;
23868;SDS011;12115;47.128;15.422;2023-04-03T03:54:06;1.85;;;1.17;;
23868;SDS011;12115;47.128;15.422;2023-04-03T03:56:34;0.80;;;0.80;;
23868;SDS011;12115;47.128;15.422;2023-04-03T03:59:01;1.35;;;0.80;;
23868;SDS011;12115;47.128;15.422;2023-04-03T04:01:30;0.65;;;0.65;;
23868;SDS011;12115;47.128;15.422;2023-04-03T04:03:58;2.08;;;0.77;;
23868;SDS011;12115;47.128;15.422;2023-04-03T04:06:29;2.00;;;0.80;;
23868;SDS011;12115;47.128;15.422;2023-04-03T04:09:01;0.82;;;0.80;;
23868;SDS011;12115;47.128;15.422;2023-04-03T04:11:31;2.25;;;1.08;;
23868;SDS011;12115;47.128;15.422;2023-04-03T04:14:00;1.00;;;0.73;;
23868;SDS011;12115;47.128;15.422;2023-04-03T04:16:38;0.85;;;0.80;;
23868;SDS011;12115;47.128;15.422;2023-04-03T04:19:11;2.38;;;0.90;;
23868;SDS011;12115;47.128;15.422;2023-04-03T04:21:45;1.02;;;0.95;;
23868;SDS011;12115;47.128;15.422;2023-04-03T04:24:12;1.40;;;0.98;;
23868;SDS011;12115;47.128;15.422;2023-04-03T04:26:40;2.80;;;0.90;;
23868;SDS011;12115;47.128;15.422;2023-04-03T04:29:10;0.80;;;0.80;;
23868;SDS011;12115;47.128;15.422;2023-04-03T04:31:38;1.02;;;0.90;;
23868;SDS011;12115;47.128;15.422;2023-04-03T04:34:06;0.98;;;0.90;;
23868;SDS011;12115;47.128;15.422;2023-04-03T04:36:35;1.00;;;0.73;;
23868;SDS011;12115;47.128;15.422;2023-04-03T04:39:02;1.08;;;0.90;;
23868;SDS011;12115;47.128;15.422;2023-04-03T04:41:30;0.77;;;0.70;;
23868;SDS011;12115;47.128;15.422;2023-04-03T04:43:58;1.50;;;0.85;;
23868;SDS011;12115;47.128;15.422;2023-04-03T04:46:26;1.08;;;0.70;;
23868;SDS011;12115;47.128;15.422;2023-04-03T04:48:56;0.60;;;0.60;;
23868;SDS011;12115;47.128;15.422;2023-04-03T04:51:27;0.80;;;0.80;;
23868;SDS011;12115;47.128;15.422;2023-04-03T04:54:01;1.02;;;0.90;;
23868;SDS011;12115;47.128;15.422;2023-04-03T04:56:28;1.77;;;0.80;;
23868;SDS011;12115;47.128;15.422;2023-04-03T04:58:57;1.33;;;0.80;;
23868;SDS011;12115;47.128;15.422;2023-04-03T05:01:25;1.00;;;0.85;;
23868;SDS011;12115;47.128;15.422;2023-04-03T05:04:07;1.10;;;0.80;;
23868;SDS011;12115;47.128;15.422;2023-04-03T05:06:39;0.70;;;0.60;;
23868;SDS011;12115;47.128;15.422;2023-04-03T05:09:11;0.93;;;0.73;;
23868;SDS011;12115;47.128;15.422;2023-04-03T05:11:40;1.50;;;0.90;;
23868;SDS011;12115;47.128;15.422;2023-04-03T05:14:11;1.00;;;0.90;;
23868;SDS011;12115;47.128;15.422;2023-04-03T05:16:41;1.13;;;0.80;;
23868;SDS011;12115;47.128;15.422;2023-04-03T05:19:09;0.70;;;0.60;;
23868;SDS011;12115;47.128;15.422;2023-04-03T05:21:38;0.70;;;0.70;;
23868;SDS011;12115;47.128;15.422;2023-04-03T05:24:10;2.40;;;0.90;;
23868;SDS011;12115;47.128;15.422;2023-04-03T05:26:43;0.75;;;0.70;;
23868;SDS011;12115;47.128;15.422;2023-04-03T05:31:40;1.13;;;0.85;;
23868;SDS011;12115;47.128;15.422;2023-04-03T05:34:10;0.65;;;0.65;;
23868;SDS011;12115;47.128;15.422;2023-04-03T05:36:39;1.05;;;0.95;;
23868;SDS011;12115;47.128;15.422;2023-04-03T05:39:08;1.30;;;0.90;;
23868;SDS011;12115;47.128;15.422;2023-04-03T05:44:07;1.15;;;0.65;;
23868;SDS011;12115;47.128;15.422;2023-04-03T05:46:34;1.73;;;0.80;;
23868;SDS011;12115;47.128;15.422;2023-04-03T05:49:05;1.15;;;0.70;;
23868;SDS011;12115;47.128;15.422;2023-04-03T05:51:36;1.02;;;0.88;;
23868;SDS011;12115;47.128;15.422;2023-04-03T05:54:24;1.33;;;0.77;;
23868;SDS011;12115;47.128;15.422;2023-04-03T05:56:59;1.27;;;0.80;;
23868;SDS011;12115;47.128;15.422;2023-04-03T05:59:27;1.23;;;0.70;;
23868;SDS011;12115;47.128;15.422;2023-04-03T06:01:57;0.70;;;0.65;;
23868;SDS011;12115;47.128;15.422;2023-04-03T06:04:24;0.90;;;0.73;;
23868;SDS011;12115;47.128;15.422;2023-04-03T06:06:53;2.65;;;0.60;;
23868;SDS011;12115;47.128;15.422;2023-04-03T06:09:43;1.98;;;0.77;;
23868;SDS011;12115;47.128;15.422;2023-04-03T06:12:10;1.25;;;0.80;;
23868;SDS011;12115;47.128;15.422;2023-04-03T06:14:37;1.50;;;0.70;;
23868;SDS011;12115;47.128;15.422;2023-04-03T06:17:05;1.02;;;0.80;;
23868;SDS011;12115;47.128;15.422;2023-04-03T06:19:33;1.10;;;0.60;;
23868;SDS011;12115;47.128;15.422;2023-04-03T06:22:02;1.15;;;0.77;;
23868;SDS011;12115;47.128;15.422;2023-04-03T06:24:29;1.10;;;0.70;;
23868;SDS011;12115;47.128;15.422;2023-04-03T06:26:57;1.17;;;0.70;;
23868;SDS011;12115;47.128;15.422;2023-04-03T06:29:25;0.98;;;0.80;;
23868;SDS011;12115;47.128;15.422;2023-04-03T06:31:52;0.73;;;0.47;;
23868;SDS011;12115;47.128;15.422;2023-04-03T06:37:16;1.00;;;0.80;;
23868;SDS011;12115;47.128;15.422;2023-04-03T06:40:00;1.30;;;0.85;;
23868;SDS011;12115;47.128;15.422;2023-04-03T06:42:28;1.80;;;1.10;;
23868;SDS011;12115;47.128;15.422;2023-04-03T06:47:57;1.00;;;0.80;;
23868;SDS011;12115;47.128;15.422;2023-04-03T06:50:25;2.42;;;0.73;;
23868;SDS011;12115;47.128;15.422;2023-04-03T06:52:52;1.70;;;1.05;;
23868;SDS011;12115;47.128;15.422;2023-04-03T06:55:19;1.02;;;0.80;;
23868;SDS011;12115;47.128;15.422;2023-04-03T06:57:51;3.28;;;1.02;;
23868;SDS011;12115;47.128;15.422;2023-04-03T07:00:25;2.40;;;1.20;;
23868;SDS011;12115;47.128;15.422;2023-04-03T07:05:45;1.77;;;1.08;;
23868;SDS011;12115;47.128;15.422;2023-04-03T07:08:12;0.90;;;0.70;;
23868;SDS011;12115;47.128;15.422;2023-04-03T07:10:41;1.20;;;0.70;;
23868;SDS011;12115;47.128;15.422;2023-04-03T07:13:08;1.98;;;1.20;;
23868;SDS011;12115;47.128;15.422;2023-04-03T07:15:35;1.42;;;0.80;;
23868;SDS011;12115;47.128;15.422;2023-04-03T07:18:03;1.02;;;0.80;;
23868;SDS011;12115;47.128;15.422;2023-04-03T07:20:34;2.90;;;1.00;;
23868;SDS011;12115;47.128;15.422;2023-04-03T07:23:01;1.90;;;0.77;;
23868;SDS011;12115;47.128;15.422;2023-04-03T07:25:29;1.83;;;0.80;;
23868;SDS011;12115;47.128;15.422;2023-04-03T07:27:58;0.98;;;0.73;;
23868;SDS011;12115;47.128;15.422;2023-04-03T07:30:25;1.02;;;0.80;;
23868;SDS011;12115;47.128;15.422;2023-04-03T07:32:53;1.10;;;0.88;;
23868;SDS011;12115;47.128;15.422;2023-04-03T07:35:20;3.00;;;0.90;;
23868;SDS011;12115;47.128;15.422;2023-04-03T07:37:48;1.17;;;0.90;;
23868;SDS011;12115;47.128;15.422;2023-04-03T07:40:15;0.80;;;0.80;;
23868;SDS011;12115;47.128;15.422;2023-04-03T07:42:45;0.90;;;0.60;;
23868;SDS011;12115;47.128;15.422;2023-04-03T07:45:12;1.05;;;0.88;;
23868;SDS011;12115;47.128;15.422;2023-04-03T07:47:39;1.17;;;0.90;;
23868;SDS011;12115;47.128;15.422;2023-04-03T07:50:07;0.77;;;0.77;;
23868;SDS011;12115;47.128;15.422;2023-04-03T07:52:35;0.82;;;0.60;;
23868;SDS011;12115;47.128;15.422;2023-04-03T07:55:03;1.00;;;0.70;;
23868;SDS011;12115;47.128;15.422;2023-04-03T07:57:30;0.60;;;0.60;;
23868;SDS011;12115;47.128;15.422;2023-04-03T07:59:58;1.38;;;0.75;;
23868;SDS011;12115;47.128;15.422;2023-04-03T08:02:26;1.30;;;0.88;;
23868;SDS011;12115;47.128;15.422;2023-04-03T08:04:57;2.60;;;0.70;;
23868;SDS011;12115;47.128;15.422;2023-04-03T08:07:25;0.70;;;0.60;;
23868;SDS011;12115;47.128;15.422;2023-04-03T08:09:53;0.93;;;0.68;;
23868;SDS011;12115;47.128;15.422;2023-04-03T08:12:20;0.77;;;0.70;;
23868;SDS011;12115;47.128;15.422;2023-04-03T08:14:47;1.00;;;0.70;;
23868;SDS011;12115;47.128;15.422;2023-04-03T08:17:15;2.80;;;1.00;;
23868;SDS011;12115;47.128;15.422;2023-04-03T08:19:42;0.70;;;0.60;;
23868;SDS011;12115;47.128;15.422;2023-04-03T08:22:10;1.13;;;0.73;;
23868;SDS011;12115;47.128;15.422;2023-04-03T08:24:37;0.88;;;0.68;;
23868;SDS011;12115;47.128;15.422;2023-04-03T08:27:17;0.70;;;0.50;;
23868;SDS011;12115;47.128;15.422;2023-04-03T08:29:45;1.45;;;0.80;;
23868;SDS011;12115;47.128;15.422;2023-04-03T08:32:12;2.20;;;0.50;;
23868;SDS011;12115;47.128;15.422;2023-04-03T08:34:40;1.05;;;0.70;;
23868;SDS011;12115;47.128;15.422;2023-04-03T08:37:10;1.35;;;0.80;;
23868;SDS011;12115;47.128;15.422;2023-04-03T08:39:37;1.50;;;0.80;;
23868;SDS011;12115;47.128;15.422;2023-04-03T08:42:05;1.77;;;0.60;;
23868;SDS011;12115;47.128;15.422;2023-04-03T08:44:55;1.75;;;0.80;;
23868;SDS011;12115;47.128;15.422;2023-04-03T08:50:15;0.80;;;0.63;;
23868;SDS011;12115;47.128;15.422;2023-04-03T08:52:55;2.03;;;0.70;;
23868;SDS011;12115;47.128;15.422;2023-04-03T08:55:29;1.60;;;0.50;;
23868;SDS011;12115;47.128;15.422;2023-04-03T09:00:57;0.75;;;0.70;;
23868;SDS011;12115;47.128;15.422;2023-04-03T09:03:29;0.57;;;0.57;;
23868;SDS011;12115;47.128;15.422;2023-04-03T09:08:43;1.00;;;0.80;;
23868;SDS011;12115;47.128;15.422;2023-04-03T09:11:25;1.00;;;0.70;;
23868;SDS011;12115;47.128;15.422;2023-04-03T09:14:18;1.50;;;0.63;;
23868;SDS011;12115;47.128;15.422;2023-04-03T09:24:42;1.33;;;0.70;;
23868;SDS011;12115;47.128;15.422;2023-04-03T09:27:16;1.98;;;0.85;;
23868;SDS011;12115;47.128;15.422;2023-04-03T09:29:44;0.70;;;0.70;;
23868;SDS011;12115;47.128;15.422;2023-04-03T09:32:26;0.52;;;0.50;;
23868;SDS011;12115;47.128;15.422;2023-04-03T09:38:18;0.65;;;0.60;;
23868;SDS011;12115;47.128;15.422;2023-04-03T09:41:17;0.88;;;0.68;;
23868;SDS011;12115;47.128;15.422;2023-04-03T09:43:52;0.75;;;0.65;;
23868;SDS011;12115;47.128;15.422;2023-04-03T09:46:25;1.13;;;1.02;;
23868;SDS011;12115;47.128;15.422;2023-04-03T09:48:58;0.90;;;0.60;;
23868;SDS011;12115;47.128;15.422;2023-04-03T09:51:37;2.03;;;1.00;;
23868;SDS011;12115;47.128;15.422;2023-04-03T09:57:12;2.33;;;0.55;;
23868;SDS011;12115;47.128;15.422;2023-04-03T09:59:42;1.05;;;0.80;;
23868;SDS011;12115;47.128;15.422;2023-04-03T10:05:00;0.80;;;0.60;;
23868;SDS011;12115;47.128;15.422;2023-04-03T10:07:36;0.65;;;0.65;;
23868;SDS011;12115;47.128;15.422;2023-04-03T10:16:17;1.80;;;0.70;;
23868;SDS011;12115;47.128;15.422;2023-04-03T10:21:50;0.70;;;0.68;;
23868;SDS011;12115;47.128;15.422;2023-04-03T10:24:34;0.57;;;0.57;;
23868;SDS011;12115;47.128;15.422;2023-04-03T10:36:12;0.75;;;0.68;;
23868;SDS011;12115;47.128;15.422;2023-04-03T10:38:48;0.95;;;0.60;;
23868;SDS011;12115;47.128;15.422;2023-04-03T10:58:34;0.40;;;0.40;;
23868;SDS011;12115;47.128;15.422;2023-04-03T11:01:12;0.68;;;0.60;;
23868;SDS011;12115;47.128;15.422;2023-04-03T11:03:46;0.65;;;0.65;;
23868;SDS011;12115;47.128;15.422;2023-04-03T11:06:21;1.38;;;0.50;;
23868;SDS011;12115;47.128;15.422;2023-04-03T11:08:53;1.30;;;0.52;;
23868;SDS011;12115;47.128;15.422;2023-04-03T11:11:33;0.88;;;0.65;;
23868;SDS011;12115;47.128;15.422;2023-04-03T11:20:21;1.33;;;0.70;;
23868;SDS011;12115;47.128;15.422;2023-04-03T11:23:03;0.85;;;0.50;;
23868;SDS011;12115;47.128;15.422;2023-04-03T11:25:49;0.95;;;0.70;;
23868;SDS011;12115;47.128;15.422;2023-04-03T11:40:08;0.77;;;0.55;;
23868;SDS011;12115;47.128;15.422;2023-04-03T11:45:34;0.75;;;0.60;;
23868;SDS011;12115;47.128;15.422;2023-04-03T11:48:41;0.50;;;0.50;;
23868;SDS011;12115;47.128;15.422;2023-04-03T11:53:43;1.45;;;0.60;;
23868;SDS011;12115;47.128;15.422;2023-04-03T12:05:39;0.93;;;0.60;;
23868;SDS011;12115;47.128;15.422;2023-04-03T12:11:24;1.10;;;0.60;;
23868;SDS011;12115;47.128;15.422;2023-04-03T12:16:26;0.73;;;0.60;;
23868;SDS011;12115;47.128;15.422;2023-04-03T12:30:00;0.52;;;0.52;;
23868;SDS011;12115;47.128;15.422;2023-04-03T12:32:41;1.23;;;0.80;;
23868;SDS011;12115;47.128;15.422;2023-04-03T12:41:49;0.77;;;0.60;;
23868;SDS011;12115;47.128;15.422;2023-04-03T12:44:04;3.88;;;0.85;;
23868;SDS011;12115;47.128;15.422;2023-04-03T12:46:54;0.85;;;0.60;;
23868;SDS011;12115;47.128;15.422;2023-04-03T12:52:19;2.00;;;0.77;;
23868;SDS011;12115;47.128;15.422;2023-04-03T12:55:16;1.65;;;0.70;;
23868;SDS011;12115;47.128;15.422;2023-04-03T12:57:53;0.80;;;0.60;;
23868;SDS011;12115;47.128;15.422;2023-04-03T13:03:03;0.80;;;0.68;;
23868;SDS011;12115;47.128;15.422;2023-04-03T13:05:33;1.55;;;0.70;;
23868;SDS011;12115;47.128;15.422;2023-04-03T13:08:04;0.80;;;0.70;;
23868;SDS011;12115;47.128;15.422;2023-04-03T13:10:55;0.85;;;0.80;;
23868;SDS011;12115;47.128;15.422;2023-04-03T13:13:38;1.35;;;1.00;;
23868;SDS011;12115;47.128;15.422;2023-04-03T13:16:10;1.58;;;0.80;;
23868;SDS011;12115;47.128;15.422;2023-04-03T13:18:41;1.80;;;0.77;;
23868;SDS011;12115;47.128;15.422;2023-04-03T13:21:13;0.70;;;0.60;;
23868;SDS011;12115;47.128;15.422;2023-04-03T13:23:48;0.82;;;0.65;;
23868;SDS011;12115;47.128;15.422;2023-04-03T13:29:29;1.25;;;0.60;;
23868;SDS011;12115;47.128;15.422;2023-04-03T13:32:01;1.65;;;0.77;;
23868;SDS011;12115;47.128;15.422;2023-04-03T13:37:38;0.65;;;0.65;;
23868;SDS011;12115;47.128;15.422;2023-04-03T13:43:02;1.50;;;0.63;;
23868;SDS011;12115;47.128;15.422;2023-04-03T13:45:32;0.88;;;0.60;;
23868;SDS011;12115;47.128;15.422;2023-04-03T13:51:12;2.30;;;0.75;;
23868;SDS011;12115;47.128;15.422;2023-04-03T13:56:44;2.90;;;0.60;;
23868;SDS011;12115;47.128;15.422;2023-04-03T14:06:58;1.60;;;0.70;;
23868;SDS011;12115;47.128;15.422;2023-04-03T14:09:27;0.63;;;0.60;;
23868;SDS011;12115;47.128;15.422;2023-04-03T14:11:55;3.22;;;1.02;;
23868;SDS011;12115;47.128;15.422;2023-04-03T14:14:31;4.05;;;0.88;;
23868;SDS011;12115;47.128;15.422;2023-04-03T14:17:05;2.33;;;0.75;;
23868;SDS011;12115;47.128;15.422;2023-04-03T14:19:51;1.30;;;0.80;;
23868;SDS011;12115;47.128;15.422;2023-04-03T14:22:23;1.08;;;0.95;;
23868;SDS011;12115;47.128;15.422;2023-04-03T14:24:56;2.30;;;0.77;;
23868;SDS011;12115;47.128;15.422;2023-04-03T14:29:56;3.17;;;1.02;;
23868;SDS011;12115;47.128;15.422;2023-04-03T14:32:25;3.20;;;1.15;;
23868;SDS011;12115;47.128;15.422;2023-04-03T14:37:46;1.10;;;0.80;;
23868;SDS011;12115;47.128;15.422;2023-04-03T14:40:17;1.88;;;1.10;;
23868;SDS011;12115;47.128;15.422;2023-04-03T14:42:47;1.10;;;0.80;;
23868;SDS011;12115;47.128;15.422;2023-04-03T14:45:16;1.85;;;0.98;;
23868;SDS011;12115;47.128;15.422;2023-04-03T14:47:54;1.02;;;0.73;;
23868;SDS011;12115;47.128;15.422;2023-04-03T14:50:24;2.25;;;1.20;;
23868;SDS011;12115;47.128;15.422;2023-04-03T14:53:03;1.40;;;0.75;;
23868;SDS011;12115;47.128;15.422;2023-04-03T14:55:31;1.15;;;0.95;;
23868;SDS011;12115;47.128;15.422;2023-04-03T14:57:58;1.77;;;0.90;;
23868;SDS011;12115;47.128;15.422;2023-04-03T15:00:26;1.50;;;0.90;;
23868;SDS011;12115;47.128;15.422;2023-04-03T15:02:53;1.38;;;0.93;;
23868;SDS011;12115;47.128;15.422;2023-04-03T15:05:21;0.80;;;0.80;;
23868;SDS011;12115;47.128;15.422;2023-04-03T15:07:57;1.52;;;0.90;;
23868;SDS011;12115;47.128;15.422;2023-04-03T15:10:28;0.95;;;0.80;;
23868;SDS011;12115;47.128;15.422;2023-04-03T15:12:57;1.15;;;1.00;;
23868;SDS011;12115;47.128;15.422;2023-04-03T15:15:28;1.80;;;0.90;;
23868;SDS011;12115;47.128;15.422;2023-04-03T15:17:56;0.75;;;0.75;;
23868;SDS011;12115;47.128;15.422;2023-04-03T15:20:25;1.00;;;0.90;;
23868;SDS011;12115;47.128;15.422;2023-04-03T15:22:58;1.17;;;0.90;;
23868;SDS011;12115;47.128;15.422;2023-04-03T15:25:31;2.30;;;1.15;;
23868;SDS011;12115;47.128;15.422;2023-04-03T15:27:59;1.27;;;1.10;;
23868;SDS011;12115;47.128;15.422;2023-04-03T15:30:26;2.15;;;1.17;;
23868;SDS011;12115;47.128;15.422;2023-04-03T15:35:58;1.02;;;0.75;;
23868;SDS011;12115;47.128;15.422;2023-04-03T15:38:33;1.73;;;0.80;;
23868;SDS011;12115;47.128;15.422;2023-04-03T15:41:01;3.10;;;0.95;;
23868;SDS011;12115;47.128;15.422;2023-04-03T15:43:28;1.70;;;1.10;;
23868;SDS011;12115;47.128;15.422;2023-04-03T15:45:58;2.85;;;0.90;;
23868;SDS011;12115;47.128;15.422;2023-04-03T15:48:27;1.63;;;1.02;;
23868;SDS011;12115;47.128;15.422;2023-04-03T15:50:55;1.50;;;1.10;;
23868;SDS011;12115;47.128;15.422;2023-04-03T15:53:24;1.55;;;0.90;;
23868;SDS011;12115;47.128;15.422;2023-04-03T15:55:52;1.33;;;0.75;;
23868;SDS011;12115;47.128;15.422;2023-04-03T15:58:19;2.05;;;1.10;;
23868;SDS011;12115;47.128;15.422;2023-04-03T16:00:47;2.00;;;0.98;;
23868;SDS011;12115;47.128;15.422;2023-04-03T16:03:16;2.38;;;1.17;;
23868;SDS011;12115;47.128;15.422;2023-04-03T16:05:46;2.17;;;1.10;;
23868;SDS011;12115;47.128;15.422;2023-04-03T16:08:14;1.20;;;1.00;;
23868;SDS011;12115;47.128;15.422;2023-04-03T16:10:44;0.85;;;0.77;;
23868;SDS011;12115;47.128;15.422;2023-04-03T16:13:13;2.50;;;0.95;;
23868;SDS011;12115;47.128;15.422;2023-04-03T16:15:41;1.30;;;0.90;;
23868;SDS011;12115;47.128;15.422;2023-04-03T16:18:09;2.15;;;1.13;;
23868;SDS011;12115;47.128;15.422;2023-04-03T16:20:37;2.83;;;1.25;;
23868;SDS011;12115;47.128;15.422;2023-04-03T16:23:04;2.65;;;1.30;;
23868;SDS011;12115;47.128;15.422;2023-04-03T16:25:32;3.00;;;0.93;;
23868;SDS011;12115;47.128;15.422;2023-04-03T16:27:59;5.50;;;1.30;;
23868;SDS011;12115;47.128;15.422;2023-04-03T16:30:27;4.40;;;1.50;;
23868;SDS011;12115;47.128;15.422;2023-04-03T16:32:54;4.75;;;1.73;;
23868;SDS011;12115;47.128;15.422;2023-04-03T16:35:22;2.08;;;1.10;;
23868;SDS011;12115;47.128;15.422;2023-04-03T16:37:50;1.50;;;1.40;;
23868;SDS011;12115;47.128;15.422;2023-04-03T16:40:17;2.20;;;1.25;;
23868;SDS011;12115;47.128;15.422;2023-04-03T16:42:46;11.25;;;1.70;;
23868;SDS011;12115;47.128;15.422;2023-04-03T16:45:14;5.68;;;1.50;;
23868;SDS011;12115;47.128;15.422;2023-04-03T16:47:42;2.05;;;1.10;;
23868;SDS011;12115;47.128;15.422;2023-04-03T16:50:10;5.43;;;1.33;;
23868;SDS011;12115;47.128;15.422;2023-04-03T16:52:38;5.68;;;1.63;;
23868;SDS011;12115;47.128;15.422;2023-04-03T16:55:06;1.50;;;1.20;;
23868;SDS011;12115;47.128;15.422;2023-04-03T16:57:34;1.50;;;1.00;;
23868;SDS011;12115;47.128;15.422;2023-04-03T17:00:02;1.92;;;1.30;;
23868;SDS011;12115;47.128;15.422;2023-04-03T17:02:30;2.33;;;1.20;;
23868;SDS011;12115;47.128;15.422;2023-04-03T17:04:58;1.98;;;1.38;;
23868;SDS011;12115;47.128;15.422;2023-04-03T17:07:26;1.77;;;1.00;;
23868;SDS011;12115;47.128;15.422;2023-04-03T17:09:54;2.70;;;1.33;;
23868;SDS011;12115;47.128;15.422;2023-04-03T17:12:21;2.63;;;1.50;;
23868;SDS011;12115;47.128;15.422;2023-04-03T17:14:49;1.80;;;1.25;;
23868;SDS011;12115;47.128;15.422;2023-04-03T17:17:21;1.50;;;1.27;;
23868;SDS011;12115;47.128;15.422;2023-04-03T17:19:50;1.55;;;1.10;;
23868;SDS011;12115;47.128;15.422;2023-04-03T17:22:21;2.08;;;1.25;;
23868;SDS011;12115;47.128;15.422;2023-04-03T17:24:49;2.25;;;1.40;;
23868;SDS011;12115;47.128;15.422;2023-04-03T17:27:26;1.65;;;1.20;;
23868;SDS011;12115;47.128;15.422;2023-04-03T17:29:55;3.25;;;1.50;;
23868;SDS011;12115;47.128;15.422;2023-04-03T17:32:22;2.83;;;1.55;;
23868;SDS011;12115;47.128;15.422;2023-04-03T17:34:53;4.55;;;1.40;;
23868;SDS011;12115;47.128;15.422;2023-04-03T17:37:21;2.75;;;1.58;;
23868;SDS011;12115;47.128;15.422;2023-04-03T17:39:49;2.55;;;1.60;;
23868;SDS011;12115;47.128;15.422;2023-04-03T17:42:20;3.50;;;2.33;;
23868;SDS011;12115;47.128;15.422;2023-04-03T17:44:48;5.65;;;3.58;;
23868;SDS011;12115;47.128;15.422;2023-04-03T17:47:16;3.13;;;2.10;;
23868;SDS011;12115;47.128;15.422;2023-04-03T17:49:43;4.03;;;2.90;;